In Rescue
 
Open Full Screen Window  High Contrast Mode
Wind Gusting 00 knots
09
November 14, 2019 1:13 PM CST
Weather Information
Wind Direction
  210 °
Wind Speed
  09 kt (10 mph)
Wind Gust
  00 kt (0 mph)
Altimeter
30.22 in
Visibility
7 SM
Temperature
05° C
41° F
Dewpoint
-06° C
21° F
Humidity
45%
1hr Rain Fall
00.00 in.
24hr Rain Fall
00.00 in.
Sky Condition
Overcast @ 6,000 ft
VFR

METAR KGDB 141913Z AUTO 21009KT 7SM OVC060 05/M06 A3022 RMK AO2 T00451057

FAA Disclaimer: The data displayed is for advisory purposes only and is not to be used for flight planning or operations.